Latest Weather Observations for Karratha

IDW60801

Issued at 7:32 am WST Wednesday 1 June 2016 (issued every 30 minutes, with the page automatically refreshed every 10 minutes)

About weather observations | Map of weather stations | Latest weather observations for WA | Other Formats
Station Details ID: 004083 Name: KARRATHA AERO Lat: -20.71 Lon: 116.77 Height: 5.3 m
Data from the previous 72 hours. | See also: Recent months at Karratha
Date/Time
WST
Temp
°C
App
Temp
°C
Dew
Point
Rel
Hum
%
Delta-T
°C
Wind Press
QNH
hPa
Press
MSL
hPa
Rain
since 9 am
mm
Dir
 
Spd
km/h
Gust
km/h
Spd
kts
Gust
kts
01/07:30am 19.2 20.7 18.0 93 0.7 S 7 9 4 5 1014.3 1014.3 0.0
01/07:00am 17.3 18.2 16.5 95 0.5 SE 7 7 4 4 1014.2 1014.2 0.0
01/06:30am 17.5 19.3 16.5 94 0.6 SSE 2 7 1 4 1013.8 1013.8 0.0
01/06:00am 17.6 19.8 16.6 94 0.6 CALM 0 0 0 0 1013.7 1013.7 0.0
01/05:30am 18.3 20.9 17.5 95 0.5 CALM 0 0 0 0 1013.5 1013.5 0.0
01/05:00am 17.7 20.1 16.9 95 0.5 CALM 0 0 0 0 1013.1 1013.1 0.0
01/04:30am 18.0 19.3 17.2 95 0.5 S 6 7 3 4 1012.9 1012.9 0.0
01/04:00am 18.2 19.5 17.6 96 0.4 S 7 9 4 5 1012.9 1012.9 0.0
01/03:30am 17.8 18.5 17.0 95 0.5 S 9 11 5 6 1013.1 1013.1 0.0
01/03:00am 17.8 18.4 16.7 93 0.7 S 9 11 5 6 1013.1 1013.1 0.0
01/02:30am 17.9 18.3 16.4 91 0.9 S 9 11 5 6 1013.4 1013.4 0.0
01/02:00am 18.2 19.1 16.2 88 1.2 SSW 6 7 3 4 1013.4 1013.4 0.0
01/01:30am 19.5 20.9 17.3 87 1.3 W 6 7 3 4 1013.9 1013.9 0.0
01/01:00am 19.8 21.7 17.6 87 1.3 W 4 9 2 5 1014.1 1014.1 0.0
01/12:30am 19.9 21.3 17.3 85 1.6 WSW 6 7 3 4 1014.4 1014.4 0.0
01/12:00am 19.9 21.3 17.3 85 1.6 WSW 6 9 3 5 1014.5 1014.5 0.0
 
Date/Time
WST
Temp
°C
App
Temp
°C
Dew
Point
Rel
Hum
%
Delta-T
°C
Wind Press
QNH
hPa
Press
MSL
hPa
Rain
since 9 am
mm
Dir
 
Spd
km/h
Gust
km/h
Spd
kts
Gust
kts
31/11:30pm 20.5 21.4 17.5 83 1.8 SW 9 13 5 7 1014.7 1014.7 0.0
31/11:00pm 21.2 22.3 18.0 82 2.0 WSW 9 11 5 6 1015.3 1015.3 0.0
31/10:30pm 21.3 22.2 17.5 79 2.3 WSW 9 11 5 6 1015.3 1015.3 0.0
31/10:00pm 21.8 22.4 17.8 78 2.5 WSW 11 13 6 7 1015.2 1015.2 0.0
31/09:30pm 22.8 23.7 18.3 76 2.8 WSW 11 13 6 7 1015.0 1015.0 0.0
31/09:00pm 24.1 23.7 18.1 69 3.8 W 17 22 9 12 1015.0 1015.0 0.0
31/08:30pm 24.3 24.0 17.3 65 4.3 WNW 15 20 8 11 1014.8 1014.8 0.0
31/08:00pm 24.4 23.6 17.1 63 4.5 WNW 17 22 9 12 1014.3 1014.3 0.0
31/07:30pm 24.4 23.5 16.9 63 4.6 WNW 17 20 9 11 1014.1 1014.1 0.0
31/07:00pm 24.4 23.3 16.4 61 4.9 WNW 17 20 9 11 1013.8 1013.8 0.0
31/06:30pm 24.6 23.0 16.1 59 5.2 WNW 19 24 10 13 1013.6 1013.6 0.0
31/06:00pm 24.8 23.0 15.4 56 5.7 WNW 19 24 10 13 1013.3 1013.3 0.0
31/05:30pm 25.2 23.1 15.2 54 6.0 WNW 20 26 11 14 1013.0 1013.0 0.0
31/05:00pm 25.7 23.9 16.0 55 5.9 WNW 20 26 11 14 1012.5 1012.5 0.0
31/04:30pm 26.3 24.3 15.4 51 6.6 NW 20 24 11 13 1012.1 1012.1 0.0
31/04:00pm 26.6 24.3 15.6 50 6.7 WNW 22 28 12 15 1012.1 1012.1 0.0
31/03:30pm 27.0 23.6 13.7 44 7.9 WNW 24 32 13 17 1012.2 1012.2 0.0
31/03:00pm 27.6 24.9 13.5 41 8.3 WNW 20 26 11 14 1012.1 1012.1 0.0
31/02:30pm 27.6 24.3 11.6 37 9.2 NW 20 26 11 14 1012.2 1012.2 0.0
31/02:00pm 28.1 24.4 11.6 36 9.5 WNW 22 26 12 14 1012.3 1012.3 0.0
31/01:30pm 28.0 25.1 12.8 39 8.9 WNW 20 26 11 14 1012.5 1012.5 0.0
31/01:00pm 27.9 25.1 12.7 39 8.9 WNW 19 22 10 12 1012.8 1012.8 0.0
31/12:30pm 27.4 25.2 13.4 42 8.3 WNW 17 22 9 12 1013.2 1013.2 0.0
31/12:00pm 27.0 24.5 12.3 40 8.5 WNW 17 20 9 11 1013.7 1013.7 0.0
31/11:30am 26.9 25.0 14.3 46 7.5 W 17 20 9 11 1014.1 1014.1 0.0
31/11:00am 26.6 25.4 14.0 46 7.5 W 13 17 7 9 1014.4 1014.4 0.0
31/10:30am 25.6 24.5 12.1 43 7.7 W 9 13 5 7 1014.6 1014.6 0.0
31/10:00am 24.1 22.6 10.4 42 7.6 W 9 13 5 7 1014.8 1014.8 0.0
31/09:30am 23.0 21.7 9.8 43 7.2 WSW 7 11 4 6 1014.9 1014.9 0.0
31/09:00am 21.9 20.4 11.9 53 5.6 WSW 11 15 6 8 1014.7 1014.7 0.0
31/08:30am 20.7 19.9 12.9 61 4.4 WSW 9 11 5 6 1014.4 1014.4 0.0
31/08:00am 19.8 18.7 14.2 70 3.2 WSW 13 15 7 8 1014.1 1014.1 0.0
31/07:30am 18.9 17.8 14.2 74 2.7 WSW 13 17 7 9 1013.9 1013.9 0.0
31/07:00am 17.7 17.1 13.6 77 2.3 WSW 9 11 5 6 1013.6 1013.6 0.0
31/06:30am 17.9 17.0 13.6 76 2.4 W 11 13 6 7 1013.3 1013.3 0.0
31/06:00am 18.6 17.0 13.9 74 2.7 WSW 15 17 8 9 1013.1 1013.1 0.0
31/05:30am 18.7 16.7 14.0 74 2.7 WSW 17 19 9 10 1012.9 1012.9 0.0
31/05:00am 19.2 17.2 13.8 71 3.1 WSW 17 20 9 11 1012.7 1012.7 0.0
31/04:30am 19.5 17.5 13.9 70 3.2 W 17 19 9 10 1012.6 1012.6 0.0
31/04:00am 19.5 17.9 13.9 70 3.2 W 15 17 8 9 1012.6 1012.6 0.0
31/03:30am 19.8 17.9 14.2 70 3.2 WSW 17 22 9 12 1012.6 1012.6 0.0
31/03:00am 20.0 17.4 13.9 68 3.5 WSW 20 24 11 13 1012.6 1012.6 0.0
31/02:30am 20.3 17.8 14.2 68 3.5 WSW 20 24 11 13 1013.0 1013.0 0.0
31/02:00am 20.8 18.4 14.5 67 3.7 WSW 20 24 11 13 1013.2 1013.2 0.0
31/01:30am 21.2 18.5 14.6 66 3.9 WSW 22 28 12 15 1013.5 1013.5 0.0
31/01:00am 21.7 19.1 14.8 65 4.1 WSW 22 26 12 14 1013.7 1013.7 0.0
31/12:30am 22.1 19.2 15.2 65 4.1 WSW 24 28 13 15 1013.6 1013.6 0.0
31/12:00am 22.4 19.2 15.3 64 4.2 WSW 26 32 14 17 1013.8 1013.8 0.0
 
Date/Time
WST
Temp
°C
App
Temp
°C
Dew
Point
Rel
Hum
%
Delta-T
°C
Wind Press
QNH
hPa
Press
MSL
hPa
Rain
since 9 am
mm
Dir
 
Spd
km/h
Gust
km/h
Spd
kts
Gust
kts
30/11:30pm 22.8 20.1 15.6 64 4.3 W 24 30 13 16 1014.0 1014.0 0.0
30/11:00pm 23.3 20.6 16.6 66 4.1 W 26 30 14 16 1014.1 1014.1 0.0
30/10:30pm 22.8 22.6 17.7 73 3.2 WSW 15 20 8 11 1014.1 1014.1 0.0
30/10:00pm 22.7 22.0 17.4 72 3.3 WSW 17 20 9 11 1014.2 1014.2 0.0
30/09:30pm 23.0 21.4 17.5 71 3.4 WSW 22 30 12 16 1014.1 1014.1 0.0
30/09:00pm 23.2 22.0 17.4 70 3.6 WSW 20 26 11 14 1014.1 1014.1 0.0
30/08:30pm 23.6 21.2 17.3 67 3.9 WSW 26 33 14 18 1014.0 1014.0 0.0
30/08:00pm 24.3 22.9 17.1 64 4.5 WSW 20 28 11 15 1013.5 1013.5 0.0
30/07:30pm 24.7 23.0 17.2 63 4.7 W 22 28 12 15 1013.1 1013.1 0.0
30/07:00pm 25.2 23.5 18.2 65 4.4 W 24 30 13 16 1012.8 1012.8 0.0
30/06:30pm 25.7 24.2 16.8 58 5.5 W 20 26 11 14 1012.6 1012.6 0.0
30/06:00pm 25.9 23.8 16.2 55 6.0 W 22 26 12 14 1012.3 1012.3 0.0
30/05:30pm 26.6 24.4 15.9 51 6.5 W 22 28 12 15 1012.1 1012.1 0.0
30/05:00pm 27.1 24.6 15.1 47 7.3 W 22 24 12 13 1011.9 1011.9 0.0
30/04:30pm 27.5 25.4 15.2 47 7.5 W 20 26 11 14 1011.3 1011.3 0.0
30/04:00pm 27.8 25.8 15.5 47 7.5 W 20 26 11 14 1011.2 1011.2 0.0
30/03:30pm 28.8 25.9 10.9 33 10.2 NW 17 20 9 11 1010.8 1010.8 0.0
30/03:00pm 29.4 25.7 9.5 29 11.1 WNW 19 24 10 13 1011.0 1011.0 0.0
30/02:30pm 30.1 26.4 9.6 28 11.5 WNW 19 20 10 11 1010.8 1010.8 0.0
30/02:00pm 30.0 24.6 2.3 17 13.8 W 20 22 11 12 1010.8 1010.8 0.0
30/01:30pm 29.8 25.0 4.4 20 13.1 W 19 22 10 12 1011.0 1011.0 0.0
30/01:00pm 29.7 25.1 3.6 19 13.2 W 17 20 9 11 1011.3 1011.3 0.0
30/12:30pm 29.5 26.2 6.2 23 12.3 WNW 13 15 7 8 1011.6 1011.6 0.0
30/12:00pm 29.7 26.0 6.4 23 12.4 WNW 15 19 8 10 1012.2 1012.2 0.0
30/11:30am 29.2 25.7 5.3 22 12.4 W 13 15 7 8 1012.5 1012.5 0.0
30/11:00am 29.0 25.8 7.0 25 11.8 W 13 17 7 9 1012.8 1012.8 0.0
30/10:30am 27.8 25.5 7.6 28 10.8 W 9 11 5 6 1012.9 1012.9 0.0
30/10:00am 26.8 25.3 9.2 33 9.7 NW 7 9 4 5 1013.1 1013.1 0.0
30/09:30am 25.4 24.0 10.8 40 8.2 W 9 11 5 6 1013.3 1013.3 0.0
30/09:00am 24.4 23.7 12.0 46 7.1 WSW 7 9 4 5 1013.2 1013.2 0.0
30/08:30am 23.7 22.9 11.1 45 7.0 WSW 6 9 3 5 1012.8 1012.8 0.0
30/08:00am 21.7 22.6 13.9 61 4.5 SSW 2 7 1 4 1012.6 1012.6 0.0
30/07:30am 19.4 20.9 14.6 74 2.8 CALM 0 2 0 1 1012.6 1012.6 0.0
30/07:00am 17.7 17.8 13.8 78 2.2 SW 6 7 3 4 1012.2 1012.2 0.0
30/06:30am 17.4 17.3 13.9 80 2.0 SSW 7 9 4 5 1012.0 1012.0 0.0
30/06:00am 18.0 18.0 15.1 83 1.7 SW 9 11 5 6 1011.8 1011.8 0.0
30/05:30am 19.0 19.1 15.5 80 2.1 WSW 9 9 5 5 1011.6 1011.6 0.0
30/05:00am 19.3 19.5 15.8 80 2.1 WSW 9 11 5 6 1011.4 1011.4 0.0
30/04:30am 20.4 20.4 16.2 77 2.5 WSW 11 13 6 7 1011.3 1011.3 0.0
30/04:00am 21.1 21.2 16.5 75 2.8 W 11 13 6 7 1011.3 1011.3 0.0
30/03:30am 20.8 21.2 16.4 76 2.7 W 9 11 5 6 1011.3 1011.3 0.0
30/03:00am 21.1 21.7 16.9 77 2.6 W 9 13 5 7 1011.5 1011.5 0.0
30/02:30am 21.3 20.8 17.7 80 2.2 W 17 20 9 11 1011.5 1011.5 0.0
30/02:00am 21.5 20.6 18.3 82 2.0 WSW 20 22 11 12 1011.8 1011.8 0.0
30/01:30am 21.5 21.3 18.5 83 1.9 WSW 17 20 9 11 1011.8 1011.8 0.0
30/01:00am 21.9 21.8 18.7 82 2.0 WSW 17 19 9 10 1012.0 1012.0 0.0
30/12:30am 22.0 22.4 19.0 83 1.9 WSW 15 17 8 9 1012.2 1012.2 0.0
30/12:00am 22.3 22.6 18.7 80 2.3 WSW 15 17 8 9 1012.5 1012.5 0.0
 
Date/Time
WST
Temp
°C
App
Temp
°C
Dew
Point
Rel
Hum
%
Delta-T
°C
Wind Press
QNH
hPa
Press
MSL
hPa
Rain
since 9 am
mm
Dir
 
Spd
km/h
Gust
km/h
Spd
kts
Gust
kts
29/11:30pm 22.7 23.1 18.9 79 2.4 SW 15 19 8 10 1012.7 1012.7 0.0
29/11:00pm 23.5 23.0 19.0 76 2.9 WSW 20 24 11 13 1013.0 1013.0 0.0
29/10:30pm 23.6 22.4 18.5 73 3.2 WSW 22 26 12 14 1013.2 1013.2 0.0
29/10:00pm 24.0 22.5 17.7 68 3.9 WSW 22 26 12 14 1013.2 1013.2 0.0
29/09:30pm 24.9 24.1 18.4 67 4.1 W 20 22 11 12 1013.2 1013.2 0.0
29/09:00pm 25.2 23.8 16.6 59 5.3 W 19 24 10 13 1013.2 1013.2 0.0
29/08:30pm 25.2 24.0 17.1 60 5.0 W 19 22 10 12 1013.1 1013.1 0.0
29/08:00pm 25.4 24.1 16.8 59 5.3 W 19 22 10 12 1012.6 1012.6 0.0
29/07:30pm 25.5 24.1 16.6 58 5.5 W 19 24 10 13 1012.4 1012.4 0.0
29/07:00pm 25.6 24.2 15.6 54 6.1 WNW 17 20 9 11 1012.3 1012.3 0.0
29/06:30pm 25.7 24.0 15.7 54 6.1 WNW 19 24 10 13 1012.1 1012.1 0.0
29/06:00pm 25.8 24.3 16.4 56 5.8 WNW 19 24 10 13 1011.6 1011.6 0.0
29/05:30pm 26.3 24.6 16.3 54 6.2 WNW 20 24 11 13 1011.4 1011.4 0.0
29/05:00pm 27.3 25.6 15.7 49 7.1 WNW 19 24 10 13 1011.3 1011.3 0.0
29/04:30pm 27.8 26.2 16.4 50 7.1 WNW 20 26 11 14 1011.2 1011.2 0.0
29/04:00pm 28.8 26.1 13.5 39 9.1 NW 20 24 11 13 1010.8 1010.8 0.0
29/03:30pm 29.7 25.7 10.3 30 11.0 WNW 22 26 12 14 1010.7 1010.7 0.0
29/03:00pm 30.1 26.7 11.1 31 10.9 NW 20 24 11 13 1010.6 1010.6 0.0
29/02:30pm 30.6 27.6 10.5 29 11.5 WNW 17 22 9 12 1010.6 1010.6 0.0
29/02:00pm 30.4 27.2 9.8 28 11.6 WNW 17 24 9 13 1010.6 1010.6 0.0
29/01:30pm 30.4 27.5 9.8 28 11.6 NW 15 20 8 11 1011.0 1011.0 0.0
29/01:00pm 30.8 28.3 9.6 27 12.0 NW 13 20 7 11 1011.2 1011.2 0.0
29/12:30pm 29.9 28.0 10.5 30 11.0 NW 11 15 6 8 1011.8 1011.8 0.0
29/12:00pm 30.0 28.5 10.5 30 11.1 NW 9 13 5 7 1012.3 1012.3 0.0
29/11:30am 29.7 28.0 9.8 29 11.2 NNE 9 13 5 7 1012.6 1012.6 0.0
29/11:00am 29.5 28.5 11.1 32 10.6 N 7 13 4 7 1013.0 1013.0 0.0
29/10:30am 28.2 27.3 11.3 35 9.7 N 7 11 4 6 1013.4 1013.4 0.0
29/10:00am 27.0 26.1 11.5 38 8.9 NNW 7 11 4 6 1013.5 1013.5 0.0
29/09:30am 26.8 26.3 9.2 33 9.7 S 2 7 1 4 1013.6 1013.6 0.0
29/09:00am 25.5 24.8 10.1 38 8.5 WSW 4 7 2 4 1013.6 1013.6 0.0
29/08:30am 24.3 23.3 10.9 43 7.5 WSW 7 9 4 5 1013.3 1013.3 0.0
29/08:00am 22.6 22.1 12.0 51 6.0 WSW 6 7 3 4 1013.0 1013.0 0.0

Other Formats:

Comma delimited format used in spreadsheet applications
http://www.bom.gov.au/fwo/IDW60801/IDW60801.95307.axf

JavaScript Object Notation format (JSON) in row-major order
http://www.bom.gov.au/fwo/IDW60801/IDW60801.95307.json